Time;durP1;ratioP1;P1;durP2;ratioP2;P2;SDS_P1;SDS_P2;PMS_P1;PMS_P2;Temp;Humidity;BMP_temperature;BMP_pressure;BME280_temperature;BME280_humidity;BME280_pressure;Samples;Min_cycle;Max_cycle;Signal;HPM_P1;HPM_P2
2023/12/04 00:02:29;;;;;;;15.63;11.13;;;4.00;84.60;;;;;;10427950;28;20273;-64
2023/12/04 00:07:33;;;;;;;15.60;11.43;;;4.00;84.50;;;;;;10444438;28;20250;-64
2023/12/04 00:12:36;;;;;;;14.50;11.07;;;4.00;84.30;;;;;;10413975;28;20360;-65
2023/12/04 00:17:41;;;;;;;17.53;11.50;;;4.00;84.60;;;;;;10446721;28;20201;-64
2023/12/04 00:22:45;;;;;;;17.03;11.60;;;4.00;84.50;;;;;;10439885;28;20284;-65
2023/12/04 00:27:48;;;;;;;16.37;10.80;;;4.00;84.20;;;;;;10447044;28;20602;-64
2023/12/04 00:32:53;;;;;;;15.10;11.27;;;4.00;83.90;;;;;;10443304;28;20275;-65
2023/12/04 00:37:57;;;;;;;13.77;10.93;;;4.00;84.10;;;;;;10444826;28;20243;-64
2023/12/04 00:43:01;;;;;;;14.83;11.03;;;4.00;83.90;;;;;;10445533;28;20223;-66
2023/12/04 00:48:06;;;;;;;14.37;10.87;;;4.00;83.70;;;;;;10443379;28;20698;-65
2023/12/04 00:53:10;;;;;;;14.07;10.37;;;4.00;83.50;;;;;;10437571;28;20222;-64
2023/12/04 00:58:13;;;;;;;12.07;9.40;;;4.00;83.20;;;;;;10442580;28;20195;-65
2023/12/04 01:03:18;;;;;;;12.40;9.77;;;4.00;86.50;;;;;;10442713;28;20233;-65
2023/12/04 01:08:22;;;;;;;13.73;9.83;;;4.10;83.30;;;;;;10442236;28;20648;-64
2023/12/04 01:13:27;;;;;;;11.33;9.00;;;4.00;82.80;;;;;;10445231;28;20253;-65
2023/12/04 01:18:32;;;;;;;12.87;9.80;;;4.10;84.20;;;;;;10444036;28;20195;-66
2023/12/04 01:23:36;;;;;;;13.37;9.63;;;4.10;82.60;;;;;;10440670;28;20282;-65
2023/12/04 01:28:39;;;;;;;11.30;8.63;;;4.10;82.60;;;;;;10435302;28;20342;-65
2023/12/04 01:33:44;;;;;;;12.43;8.97;;;4.10;81.30;;;;;;10440219;28;20226;-65
2023/12/04 01:38:48;;;;;;;11.60;9.00;;;4.10;82.50;;;;;;10444624;28;20619;-65
2023/12/04 01:43:51;;;;;;;10.20;8.27;;;4.00;81.20;;;;;;10441196;28;20227;-65
2023/12/04 01:48:56;;;;;;;11.67;8.67;;;4.00;81.30;;;;;;10432451;28;20224;-65
2023/12/04 01:54:03;;;;;;;11.90;8.77;;;4.10;80.80;;;;;;10441621;28;20222;-65
2023/12/04 01:59:06;;;;;;;10.87;8.20;;;4.10;80.50;;;;;;10443071;28;20273;-65
2023/12/04 02:04:12;;;;;;;10.77;8.07;;;4.10;80.00;;;;;;10441074;28;20643;-64
2023/12/04 02:09:16;;;;;;;9.63;7.70;;;4.10;79.60;;;;;;10433234;28;20253;-64
2023/12/04 02:14:20;;;;;;;9.83;7.80;;;4.10;80.40;;;;;;10437290;28;20231;-65
2023/12/04 02:19:25;;;;;;;11.03;7.93;;;4.10;79.50;;;;;;10430210;28;20242;-65
2023/12/04 02:24:34;;;;;;;11.60;8.17;;;4.10;82.20;;;;;;10437833;28;20280;-65
2023/12/04 02:29:43;;;;;;;10.13;7.70;;;4.10;79.50;;;;;;10441655;28;20618;-64
2023/12/04 02:34:48;;;;;;;9.63;7.37;;;4.10;79.40;;;;;;10438282;28;20275;-64
2023/12/04 02:39:55;;;;;;;10.23;7.73;;;4.10;80.00;;;;;;10443896;28;20647;-65
2023/12/04 02:44:58;;;;;;;8.57;6.97;;;4.10;78.90;;;;;;10432814;28;20763;-64
2023/12/04 02:50:02;;;;;;;9.73;7.07;;;4.10;79.00;;;;;;10439157;28;20223;-65
2023/12/04 02:55:08;;;;;;;10.13;7.00;;;4.10;80.30;;;;;;10438372;28;20248;-65
2023/12/04 03:00:13;;;;;;;9.30;6.90;;;4.20;79.50;;;;;;10438523;28;20199;-65
2023/12/04 03:05:16;;;;;;;9.07;6.97;;;4.20;78.60;;;;;;10436840;28;20211;-65
2023/12/04 03:10:21;;;;;;;8.33;7.10;;;4.20;78.80;;;;;;10440089;28;20297;-64
2023/12/04 03:15:28;;;;;;;8.27;7.07;;;4.20;78.20;;;;;;10439374;28;20195;-64
2023/12/04 03:20:33;;;;;;;8.83;6.80;;;4.20;78.00;;;;;;10430610;28;20605;-65
2023/12/04 03:25:38;;;;;;;7.87;6.50;;;4.20;78.60;;;;;;10434667;28;20208;-65
2023/12/04 03:30:43;;;;;;;7.93;6.20;;;4.20;77.10;;;;;;10428690;28;20275;-64
2023/12/04 03:35:47;;;;;;;10.17;6.80;;;4.20;79.00;;;;;;10429701;28;20202;-65
2023/12/04 03:40:52;;;;;;;9.97;7.10;;;4.20;76.30;;;;;;10441235;28;20264;-65
2023/12/04 03:45:56;;;;;;;7.83;6.23;;;4.20;76.60;;;;;;10448097;28;20728;-64
2023/12/04 03:51:00;;;;;;;6.80;5.63;;;4.20;78.10;;;;;;10444533;28;20683;-65
2023/12/04 03:56:06;;;;;;;7.50;5.83;;;4.20;75.80;;;;;;10441273;28;20681;-65
2023/12/04 04:01:10;;;;;;;7.73;6.23;;;4.20;75.10;;;;;;10442446;28;20213;-65
2023/12/04 04:06:13;;;;;;;7.50;5.63;;;4.20;75.60;;;;;;10449194;28;20212;-66
2023/12/04 04:11:18;;;;;;;6.83;5.30;;;4.20;76.30;;;;;;10437787;28;20226;-67
2023/12/04 04:16:22;;;;;;;8.70;6.23;;;4.20;75.30;;;;;;10444249;28;20209;-67
2023/12/04 04:21:26;;;;;;;6.33;4.93;;;4.30;76.70;;;;;;10449358;28;20278;-66
2023/12/04 04:26:31;;;;;;;11.03;7.30;;;4.30;73.90;;;;;;10441132;28;20199;-67
2023/12/04 04:31:35;;;;;;;6.43;5.30;;;4.30;75.90;;;;;;10439582;28;20280;-66
2023/12/04 04:36:38;;;;;;;6.80;5.13;;;4.30;74.50;;;;;;10437217;28;20201;-64
2023/12/04 04:41:44;;;;;;;6.60;5.40;;;4.40;78.00;;;;;;10444329;28;20227;-65
2023/12/04 04:46:48;;;;;;;6.77;4.70;;;4.40;75.80;;;;;;10455183;28;20220;-63
2023/12/04 04:51:52;;;;;;;6.40;4.90;;;4.40;75.00;;;;;;10450101;28;20268;-65
2023/12/04 04:56:57;;;;;;;7.03;5.03;;;4.40;76.60;;;;;;10458313;28;20252;-64
2023/12/04 05:02:01;;;;;;;7.13;5.20;;;4.40;75.20;;;;;;10445809;28;20217;-64
2023/12/04 05:07:05;;;;;;;6.60;4.80;;;4.40;74.30;;;;;;10449733;28;20223;-63
2023/12/04 05:12:10;;;;;;;7.03;5.40;;;4.40;75.90;;;;;;10449488;28;20220;-65
2023/12/04 05:17:13;;;;;;;6.27;5.13;;;4.50;75.30;;;;;;10439709;28;20202;-63
2023/12/04 05:22:17;;;;;;;7.13;5.53;;;4.50;75.80;;;;;;10450901;28;20764;-65
2023/12/04 05:27:22;;;;;;;7.90;4.90;;;4.50;74.10;;;;;;10444640;28;20226;-64
2023/12/04 05:32:26;;;;;;;8.43;6.13;;;4.50;72.50;;;;;;10438418;28;20294;-64
2023/12/04 05:37:29;;;;;;;11.13;6.07;;;4.50;76.20;;;;;;10448424;28;20244;-64
2023/12/04 05:42:34;;;;;;;7.33;5.17;;;4.50;75.30;;;;;;10441465;28;20243;-64
2023/12/04 05:47:38;;;;;;;6.43;5.07;;;4.40;74.50;;;;;;10440488;28;20217;-63
2023/12/04 05:52:42;;;;;;;7.67;6.47;;;4.40;75.40;;;;;;10439413;28;20240;-63
2023/12/04 05:57:47;;;;;;;7.20;5.85;;;4.40;73.80;;;;;;10440657;28;20985;-67
2023/12/04 06:02:50;;;;;;;6.37;4.97;;;4.40;71.30;;;;;;10441422;28;20243;-67
2023/12/04 06:07:54;;;;;;;7.90;6.17;;;4.50;72.90;;;;;;10439498;28;20276;-66
2023/12/04 06:12:59;;;;;;;7.73;5.80;;;4.50;72.90;;;;;;10444048;28;20231;-67
2023/12/04 06:18:02;;;;;;;7.23;5.70;;;4.50;72.80;;;;;;10449592;28;20715;-67
2023/12/04 06:23:06;;;;;;;6.93;5.30;;;4.50;74.10;;;;;;10443194;28;20664;-65
2023/12/04 06:28:12;;;;;;;8.37;5.90;;;4.40;72.30;;;;;;10436631;28;20669;-64
2023/12/04 06:33:18;;;;;;;7.70;5.87;;;4.40;72.50;;;;;;10439368;28;20224;-65
2023/12/04 06:38:26;;;;;;;7.50;5.97;;;4.40;76.70;;;;;;10447946;28;20250;-66
2023/12/04 06:43:32;;;;;;;6.70;5.60;;;4.40;77.20;;;;;;10435533;28;20219;-67
2023/12/04 06:48:37;;;;;;;7.40;5.60;;;4.40;74.60;;;;;;10442871;28;20235;-66
2023/12/04 06:53:40;;;;;;;8.33;6.03;;;4.30;73.70;;;;;;10456625;28;20214;-66
2023/12/04 06:58:45;;;;;;;8.23;5.50;;;4.30;74.40;;;;;;10442995;28;20652;-67
2023/12/04 07:03:49;;;;;;;7.77;5.83;;;4.30;73.10;;;;;;10439343;28;20233;-66
2023/12/04 07:08:52;;;;;;;9.37;5.97;;;4.30;74.60;;;;;;10442288;28;20215;-66
2023/12/04 07:13:58;;;;;;;6.13;5.50;;;4.30;75.60;;;;;;10437293;28;20642;-68
2023/12/04 07:19:01;;;;;;;6.87;5.63;;;4.30;73.10;;;;;;10431408;28;20625;-65
2023/12/04 07:24:05;;;;;;;7.43;5.30;;;4.30;73.00;;;;;;10443304;28;20277;-67
2023/12/04 07:29:10;;;;;;;7.30;5.83;;;4.40;72.70;;;;;;10447223;28;20257;-66
2023/12/04 07:34:14;;;;;;;7.07;5.27;;;4.40;70.80;;;;;;10453576;28;20225;-67
2023/12/04 07:39:18;;;;;;;5.97;5.20;;;4.40;71.20;;;;;;10450495;28;20617;-67
2023/12/04 07:44:23;;;;;;;6.83;5.43;;;4.40;70.70;;;;;;10448961;28;20280;-67
2023/12/04 07:49:27;;;;;;;6.90;5.20;;;4.40;70.50;;;;;;10443060;28;20253;-66
2023/12/04 07:54:31;;;;;;;6.77;5.30;;;4.50;73.10;;;;;;10449883;28;20228;-66
2023/12/04 07:59:36;;;;;;;6.53;5.10;;;4.50;75.50;;;;;;10441064;28;20661;-66
2023/12/04 08:04:40;;;;;;;6.63;4.97;;;4.50;75.30;;;;;;10396845;28;1189838;-68
2023/12/04 08:09:43;;;;;;;7.07;4.83;;;4.50;72.30;;;;;;10446725;28;20248;-66
2023/12/04 08:14:48;;;;;;;7.13;5.13;;;4.50;70.70;;;;;;10444142;28;21577;-67
2023/12/04 08:19:52;;;;;;;5.77;5.00;;;4.60;70.80;;;;;;10446615;28;20202;-69
2023/12/04 08:24:57;;;;;;;6.53;5.57;;;4.60;69.20;;;;;;10451446;28;20217;-68
2023/12/04 08:30:04;;;;;;;10.00;5.90;;;4.60;70.60;;;;;;10449917;28;20325;-66
2023/12/04 08:35:09;;;;;;;6.27;4.90;;;4.60;70.10;;;;;;10453030;28;20713;-66
2023/12/04 08:40:13;;;;;;;8.57;5.27;;;4.70;70.70;;;;;;10448125;28;20256;-66
2023/12/04 08:45:21;;;;;;;6.17;4.80;;;4.70;69.70;;;;;;10453155;28;20266;-66
2023/12/04 08:50:26;;;;;;;6.30;5.00;;;4.70;70.60;;;;;;10446754;28;20665;-64
2023/12/04 08:55:29;;;;;;;5.20;4.50;;;4.80;72.00;;;;;;10438808;28;20252;-66
2023/12/04 09:00:37;;;;;;;6.97;4.73;;;4.80;68.80;;;;;;10456852;28;20311;-63
2023/12/04 09:05:41;;;;;;;6.80;4.83;;;4.90;68.00;;;;;;10453366;28;20210;-64
2023/12/04 09:10:45;;;;;;;5.43;4.17;;;5.00;69.60;;;;;;10456211;28;20275;-64
2023/12/04 09:16:10;;;;;;;5.23;4.03;;;5.00;69.00;;;;;;10442778;28;20591;-64
2023/12/04 09:21:14;;;;;;;5.07;3.80;;;5.10;66.80;;;;;;10453729;28;20266;-64
2023/12/04 09:26:18;;;;;;;5.73;4.40;;;5.10;68.70;;;;;;10454051;28;20267;-64
2023/12/04 09:31:23;;;;;;;7.37;4.13;;;5.20;67.80;;;;;;10453315;28;20308;-64
2023/12/04 09:36:26;;;;;;;6.67;4.23;;;5.20;66.20;;;;;;10452687;28;20202;-64
2023/12/04 09:41:31;;;;;;;4.50;4.00;;;5.20;66.70;;;;;;10452175;28;20288;-64
2023/12/04 09:46:36;;;;;;;4.70;3.53;;;5.30;67.90;;;;;;10452742;28;20205;-64
2023/12/04 09:51:40;;;;;;;4.90;3.97;;;5.30;70.10;;;;;;10455472;28;20608;-64
2023/12/04 09:56:44;;;;;;;5.83;4.40;;;5.30;67.20;;;;;;10452875;28;20206;-63
2023/12/04 10:01:50;;;;;;;4.97;3.80;;;5.30;66.70;;;;;;10451727;28;20260;-64
2023/12/04 10:06:55;;;;;;;5.47;3.50;;;5.40;67.00;;;;;;10453752;28;20723;-64
2023/12/04 10:11:58;;;;;;;4.73;3.57;;;5.50;66.40;;;;;;10449216;28;20277;-64
2023/12/04 10:17:15;;;;;;;6.70;4.00;;;5.50;66.80;;;;;;10452298;28;20252;-64
2023/12/04 10:22:18;;;;;;;8.67;4.37;;;5.50;68.60;;;;;;10453057;28;20275;-64
2023/12/04 10:27:27;;;;;;;5.40;3.90;;;5.60;67.70;;;;;;10451171;28;20255;-64
2023/12/04 10:32:32;;;;;;;7.87;3.80;;;5.60;67.80;;;;;;10453555;28;20252;-64
2023/12/04 10:37:38;;;;;;;35.73;32.90;;;5.70;69.90;;;;;;10450976;28;20207;-64
2023/12/04 10:42:41;;;;;;;6.70;3.77;;;5.70;71.20;;;;;;10454021;28;20217;-64
2023/12/04 10:47:47;;;;;;;4.70;3.83;;;5.70;68.30;;;;;;10453784;28;20611;-64
2023/12/04 10:52:53;;;;;;;7.10;4.40;;;5.80;71.10;;;;;;10449691;28;20223;-63
2023/12/04 10:57:58;;;;;;;4.83;4.23;;;5.70;71.00;;;;;;10445568;28;20268;-64
2023/12/04 11:03:06;;;;;;;7.73;4.47;;;5.80;71.50;;;;;;10443727;28;20233;-64
2023/12/04 11:08:14;;;;;;;7.70;5.13;;;5.70;69.30;;;;;;10447691;28;20201;-64
2023/12/04 11:13:27;;;;;;;6.37;4.90;;;5.80;76.00;;;;;;10436148;28;20253;-64
2023/12/04 11:18:38;;;;;;;7.23;4.90;;;5.80;72.10;;;;;;10437865;28;20662;-63
2023/12/04 11:23:44;;;;;;;9.30;5.30;;;5.80;72.60;;;;;;10437569;28;20283;-64
2023/12/04 11:28:48;;;;;;;7.23;5.90;;;5.80;73.10;;;;;;10446014;28;20251;-65
2023/12/04 11:33:53;;;;;;;6.83;5.67;;;5.80;69.80;;;;;;10412264;28;20270;-61
2023/12/04 11:38:57;;;;;;;6.17;5.17;;;5.80;68.90;;;;;;10449710;28;20223;-65
2023/12/04 11:44:01;;;;;;;7.37;5.87;;;5.80;69.90;;;;;;10446595;28;20262;-69
2023/12/04 11:49:30;;;;;;;8.13;5.90;;;5.80;70.60;;;;;;10446743;28;20815;-63
2023/12/04 11:54:59;;;;;;;7.03;5.50;;;5.80;68.90;;;;;;10443287;28;20220;-62
2023/12/04 12:00:11;;;;;;;7.90;6.43;;;5.80;71.60;;;;;;10443739;28;20272;-64
2023/12/04 12:05:17;;;;;;;6.60;5.93;;;5.80;71.50;;;;;;10449812;28;20259;-65
2023/12/04 12:10:21;;;;;;;7.03;6.33;;;5.80;72.50;;;;;;10451681;28;20285;-67
2023/12/04 12:15:25;;;;;;;7.03;5.90;;;5.80;74.40;;;;;;10445967;28;20231;-65
2023/12/04 12:20:30;;;;;;;8.97;6.00;;;5.90;74.40;;;;;;10447975;28;20713;-66
2023/12/04 12:25:35;;;;;;;7.90;6.00;;;5.90;73.60;;;;;;10450490;28;20619;-67
2023/12/04 12:30:38;;;;;;;8.90;6.67;;;5.90;75.50;;;;;;10448697;28;20249;-68
2023/12/04 12:35:43;;;;;;;7.93;6.40;;;5.80;74.70;;;;;;10446504;28;20276;-67
2023/12/04 12:41:00;;;;;;;8.30;6.50;;;5.80;76.20;;;;;;10437683;28;20222;-67
2023/12/04 12:46:05;;;;;;;8.40;6.97;;;5.70;74.60;;;;;;10448240;28;20228;-67
2023/12/04 12:51:11;;;;;;;9.17;7.20;;;5.80;76.70;;;;;;10447109;28;20284;-67
2023/12/04 12:56:15;;;;;;;9.17;7.00;;;5.80;75.40;;;;;;10452421;28;20203;-68
2023/12/04 13:01:20;;;;;;;7.90;6.60;;;5.80;77.30;;;;;;10444267;28;20226;-68
2023/12/04 13:06:25;;;;;;;9.43;7.20;;;5.80;80.10;;;;;;10435461;28;20240;-67
2023/12/04 13:11:32;;;;;;;9.27;6.53;;;5.80;78.50;;;;;;10455213;28;20229;-67
2023/12/04 13:16:35;;;;;;;8.93;6.93;;;5.70;78.90;;;;;;10455352;28;20719;-68
2023/12/04 13:21:40;;;;;;;8.23;6.93;;;5.70;81.40;;;;;;10449813;28;20214;-68
2023/12/04 13:26:44;;;;;;;6.97;5.97;;;5.60;81.20;;;;;;10457463;28;20615;-66
2023/12/04 13:31:49;;;;;;;8.50;6.97;;;5.60;80.00;;;;;;10452776;28;20712;-66
2023/12/04 13:36:56;;;;;;;7.30;6.37;;;5.60;81.90;;;;;;10452916;28;20206;-67
2023/12/04 13:47:20;;;;;;;8.13;6.23;;;5.70;82.30;;;;;;10451904;28;20265;-66
2023/12/04 13:52:29;;;;;;;8.17;5.87;;;5.70;80.60;;;;;;10453079;28;20229;-67
2023/12/04 13:57:43;;;;;;;8.70;6.30;;;5.70;79.80;;;;;;10452170;28;20198;-67
2023/12/04 14:02:47;;;;;;;9.20;7.10;;;5.70;82.00;;;;;;10446442;28;20283;-67
2023/12/04 14:07:52;;;;;;;6.13;5.20;;;5.70;82.30;;;;;;10444455;28;20691;-68
2023/12/04 14:12:56;;;;;;;7.37;6.57;;;5.60;83.80;;;;;;10440927;28;20225;-68
2023/12/04 14:18:02;;;;;;;6.17;5.33;;;5.70;84.10;;;;;;10449400;28;20191;-68
2023/12/04 14:23:07;;;;;;;6.93;5.53;;;5.70;85.00;;;;;;10443938;28;20272;-68
2023/12/04 14:28:11;;;;;;;6.37;5.27;;;5.70;85.70;;;;;;10423890;28;20209;-66
2023/12/04 14:33:14;;;;;;;5.80;5.10;;;5.70;83.30;;;;;;10447839;28;20279;-65
2023/12/04 14:38:19;;;;;;;5.40;4.90;;;5.70;82.00;;;;;;10421446;28;20203;-65
2023/12/04 14:43:23;;;;;;;6.10;5.03;;;5.70;82.50;;;;;;10434048;28;20218;-65
2023/12/04 14:48:27;;;;;;;5.33;4.83;;;5.70;85.00;;;;;;10401967;28;20204;-65
2023/12/04 14:53:43;;;;;;;6.43;5.07;;;5.70;84.80;;;;;;10448936;28;20279;-65
2023/12/04 15:15:25;;;;;;;4.27;3.73;;;5.60;86.60;;;;;;10440124;28;20265;-65
2023/12/04 15:20:37;;;;;;;5.97;4.33;;;5.70;87.00;;;;;;10438544;28;20217;-65
2023/12/04 15:25:42;;;;;;;5.33;3.80;;;5.70;91.00;;;;;;10438027;28;20220;-66
2023/12/04 15:30:46;;;;;;;5.80;4.53;;;5.70;89.40;;;;;;10443464;28;20226;-66
2023/12/04 15:35:50;;;;;;;4.47;4.00;;;5.70;91.20;;;;;;10448605;28;20203;-66
2023/12/04 15:40:55;;;;;;;7.37;4.90;;;5.70;90.90;;;;;;10452949;28;20218;-66
2023/12/04 15:46:01;;;;;;;6.17;4.37;;;5.70;89.60;;;;;;10453801;28;20204;-65
2023/12/04 15:51:06;;;;;;;5.93;5.00;;;5.70;91.40;;;;;;10411701;28;20744;-66
2023/12/04 15:56:12;;;;;;;5.50;4.40;;;5.70;90.70;;;;;;10446101;28;20198;-66
2023/12/04 16:01:16;;;;;;;5.40;4.50;;;5.70;92.10;;;;;;10441991;28;20457;-65
2023/12/04 16:06:22;;;;;;;5.10;4.47;;;5.60;91.20;;;;;;10448318;28;20611;-66
2023/12/04 16:11:28;;;;;;;6.23;5.07;;;5.60;91.30;;;;;;10462312;28;20228;-63
2023/12/04 16:16:31;;;;;;;7.00;5.47;;;5.60;91.80;;;;;;10451117;28;20279;-67
2023/12/04 16:21:35;;;;;;;5.90;4.80;;;5.60;90.30;;;;;;10442935;28;20217;-68
2023/12/04 16:26:40;;;;;;;6.07;4.63;;;5.60;91.30;;;;;;10447312;28;20204;-67
2023/12/04 16:31:44;;;;;;;5.70;4.90;;;5.60;90.40;;;;;;10442890;28;20230;-67
2023/12/04 16:36:48;;;;;;;7.67;5.90;;;5.50;89.40;;;;;;10451757;28;20228;-67
2023/12/04 16:41:53;;;;;;;5.23;4.73;;;5.50;92.30;;;;;;10447023;28;20264;-67
2023/12/04 16:46:57;;;;;;;5.43;4.80;;;5.50;91.00;;;;;;10447230;28;20263;-69
2023/12/04 16:52:01;;;;;;;6.70;5.93;;;5.50;89.70;;;;;;10454505;28;20573;-65
2023/12/04 16:57:06;;;;;;;6.23;5.17;;;5.50;90.80;;;;;;10448908;28;20205;-66
2023/12/04 17:02:10;;;;;;;5.93;5.23;;;5.50;91.10;;;;;;10448188;28;20247;-66
2023/12/04 17:07:13;;;;;;;6.87;5.47;;;5.50;90.70;;;;;;10436104;28;20206;-66
2023/12/04 17:12:18;;;;;;;7.00;5.57;;;5.40;91.60;;;;;;10443528;28;20234;-66
2023/12/04 17:17:22;;;;;;;6.93;5.40;;;5.40;91.10;;;;;;10449055;28;20738;-65
2023/12/04 17:22:27;;;;;;;6.03;5.10;;;5.40;91.10;;;;;;10443094;28;20201;-64
2023/12/04 17:27:32;;;;;;;8.02;7.22;;;5.40;90.50;;;;;;10447186;28;20505;-66
2023/12/04 17:32:36;;;;;;;6.17;5.57;;;5.60;90.30;;;;;;10447622;28;20279;-63
2023/12/04 17:37:40;;;;;;;7.00;5.53;;;5.60;90.90;;;;;;10449851;28;20197;-65
2023/12/04 17:42:46;;;;;;;8.13;5.90;;;5.60;90.60;;;;;;10448966;28;20287;-64
2023/12/04 17:47:50;;;;;;;7.07;5.70;;;5.60;90.70;;;;;;10449116;28;20248;-65
2023/12/04 17:52:54;;;;;;;8.67;6.73;;;5.50;91.70;;;;;;10445565;28;20937;-64
2023/12/04 17:58:00;;;;;;;12.00;8.00;;;5.50;91.40;;;;;;10453898;28;20676;-66
2023/12/04 18:03:04;;;;;;;7.03;6.00;;;5.50;91.70;;;;;;10409513;28;20290;-64
2023/12/04 18:08:11;;;;;;;7.33;6.07;;;5.50;92.70;;;;;;10448434;28;20205;-65
2023/12/04 18:13:17;;;;;;;6.90;5.90;;;5.50;92.80;;;;;;10447901;28;20231;-66
2023/12/04 18:18:20;;;;;;;6.77;5.77;;;5.50;92.00;;;;;;10445769;28;20206;-63
2023/12/04 18:23:24;;;;;;;5.57;5.07;;;5.50;93.10;;;;;;10444871;28;20272;-70
2023/12/04 18:28:30;;;;;;;10.77;6.13;;;5.50;93.30;;;;;;10442190;28;20207;-66
2023/12/04 18:33:35;;;;;;;6.07;5.47;;;5.40;92.40;;;;;;10448418;28;20221;-63
2023/12/04 18:38:46;;;;;;;9.00;6.30;;;5.40;92.70;;;;;;10447593;28;20255;-63
2023/12/04 18:43:52;;;;;;;6.53;5.80;;;5.40;92.60;;;;;;10447524;28;20263;-63
2023/12/04 18:48:56;;;;;;;6.13;5.37;;;5.50;92.50;;;;;;10445316;28;20201;-63
2023/12/04 18:54:00;;;;;;;6.53;5.93;;;5.40;91.90;;;;;;10446526;28;20228;-67
2023/12/04 18:59:05;;;;;;;6.60;5.80;;;5.40;91.50;;;;;;10450920;28;20206;-64
2023/12/04 19:04:09;;;;;;;7.07;5.57;;;5.40;93.90;;;;;;10439825;28;20276;-64
2023/12/04 19:09:13;;;;;;;6.93;6.10;;;5.40;93.10;;;;;;10447080;28;20652;-65
2023/12/04 19:14:18;;;;;;;6.07;5.47;;;5.50;93.50;;;;;;10452602;28;20279;-67
2023/12/04 19:19:22;;;;;;;6.67;6.03;;;5.50;92.90;;;;;;10459991;28;20204;-64
2023/12/04 19:24:26;;;;;;;7.80;6.03;;;5.50;93.30;;;;;;10449781;28;20273;-61
2023/12/04 19:29:31;;;;;;;6.90;6.20;;;5.50;95.00;;;;;;10460640;28;20204;-63
2023/12/04 19:34:35;;;;;;;7.30;6.40;;;5.50;93.60;;;;;;10465561;28;20268;-67
2023/12/04 19:39:39;;;;;;;6.53;5.83;;;5.50;93.30;;;;;;10459340;28;20205;-66
2023/12/04 19:44:45;;;;;;;6.13;5.53;;;5.50;93.80;;;;;;10456701;28;20218;-67
2023/12/04 19:49:49;;;;;;;6.97;6.20;;;5.50;94.60;;;;;;10419172;28;20205;-66
2023/12/04 19:54:53;;;;;;;7.97;6.23;;;5.50;95.40;;;;;;10456182;28;20225;-65
2023/12/04 19:59:58;;;;;;;7.03;6.33;;;5.60;94.70;;;;;;10448207;28;20197;-66
2023/12/04 20:05:03;;;;;;;7.13;6.43;;;5.60;94.50;;;;;;10452447;28;20229;-62
2023/12/04 20:10:08;;;;;;;7.23;6.53;;;5.60;94.30;;;;;;10447208;28;20206;-63
2023/12/04 20:15:13;;;;;;;7.17;6.43;;;5.60;94.50;;;;;;10453474;28;20216;-63
2023/12/04 20:20:19;;;;;;;8.73;6.60;;;5.60;94.10;;;;;;10447518;28;20205;-63
2023/12/04 20:25:22;;;;;;;8.10;7.30;;;5.60;94.30;;;;;;10448874;28;20205;-62
2023/12/04 20:30:29;;;;;;;8.00;6.83;;;5.60;94.80;;;;;;10446256;28;20225;-62
2023/12/04 20:35:34;;;;;;;8.47;7.03;;;5.60;95.20;;;;;;10447247;28;20351;-62
2023/12/04 20:40:38;;;;;;;8.50;6.50;;;5.60;95.40;;;;;;10454192;28;20227;-61
2023/12/04 20:45:47;;;;;;;7.73;6.20;;;5.60;95.80;;;;;;10438780;28;20207;-60
2023/12/04 20:50:52;;;;;;;8.10;6.80;;;5.70;96.10;;;;;;10373633;28;20802;-64
2023/12/04 20:55:55;;;;;;;8.73;6.20;;;5.70;96.00;;;;;;10458331;28;20224;-64
2023/12/04 21:01:02;;;;;;;8.97;6.93;;;5.70;95.80;;;;;;10440660;28;20278;-63
2023/12/04 21:06:06;;;;;;;9.50;7.03;;;5.70;95.50;;;;;;10459875;28;20233;-63
2023/12/04 21:11:10;;;;;;;9.13;7.37;;;5.70;95.50;;;;;;10460199;28;20230;-64
2023/12/04 21:16:15;;;;;;;9.63;7.60;;;5.70;95.10;;;;;;10449701;28;20257;-62
2023/12/04 21:21:19;;;;;;;8.67;7.50;;;5.70;95.10;;;;;;10446503;28;20225;-63
2023/12/04 21:26:23;;;;;;;9.67;7.70;;;5.70;95.00;;;;;;10448392;28;20209;-63
2023/12/04 21:31:28;;;;;;;8.67;7.77;;;5.70;95.20;;;;;;10438914;28;20271;-62
2023/12/04 21:36:31;;;;;;;8.80;7.53;;;5.70;95.30;;;;;;10446559;28;20245;-65
2023/12/04 21:41:35;;;;;;;8.10;7.23;;;5.70;95.30;;;;;;10443463;28;20222;-63
2023/12/04 21:46:40;;;;;;;7.93;7.13;;;5.70;96.00;;;;;;10444128;28;20188;-63
2023/12/04 21:51:44;;;;;;;7.47;6.67;;;5.70;96.10;;;;;;10445472;28;20229;-64
2023/12/04 21:56:48;;;;;;;6.67;5.97;;;5.80;96.40;;;;;;10445517;28;20282;-62
2023/12/04 22:01:53;;;;;;;6.60;5.87;;;5.80;96.50;;;;;;10444822;28;20639;-62
2023/12/04 22:06:57;;;;;;;6.40;5.67;;;5.80;97.00;;;;;;10444308;28;20207;-62
2023/12/04 22:12:00;;;;;;;6.70;6.00;;;5.80;96.90;;;;;;10443422;28;20229;-62
2023/12/04 22:17:06;;;;;;;7.93;7.00;;;5.90;97.20;;;;;;10436456;28;20246;-62
2023/12/04 22:22:11;;;;;;;6.60;6.00;;;5.90;97.50;;;;;;10444718;28;20333;-63
2023/12/04 22:27:14;;;;;;;6.97;6.13;;;5.90;97.60;;;;;;10446889;28;20198;-63
2023/12/04 22:32:19;;;;;;;6.50;5.80;;;5.90;98.00;;;;;;10441965;28;20217;-62
2023/12/04 22:37:23;;;;;;;7.17;6.07;;;5.90;97.90;;;;;;10438957;28;20275;-63
2023/12/04 22:42:26;;;;;;;6.53;5.93;;;6.00;98.20;;;;;;10440992;28;20248;-63
2023/12/04 22:47:32;;;;;;;6.60;6.00;;;6.00;98.80;;;;;;10448998;28;20201;-63
2023/12/04 22:52:36;;;;;;;6.03;5.53;;;6.00;98.60;;;;;;10400073;28;20603;-63
2023/12/04 22:57:40;;;;;;;6.37;5.47;;;6.00;98.70;;;;;;10449571;28;20268;-62
2023/12/04 23:02:46;;;;;;;6.77;6.07;;;6.10;98.80;;;;;;10444947;28;20704;-64
2023/12/04 23:07:50;;;;;;;6.67;5.90;;;6.00;98.60;;;;;;10453595;28;20264;-63
2023/12/04 23:12:56;;;;;;;6.27;5.67;;;6.10;98.80;;;;;;10445860;28;20239;-63
2023/12/04 23:18:02;;;;;;;5.63;5.13;;;6.10;98.60;;;;;;10456292;28;20222;-63
2023/12/04 23:23:05;;;;;;;6.40;5.80;;;6.10;98.60;;;;;;10449664;28;20566;-62
2023/12/04 23:28:09;;;;;;;6.93;6.23;;;6.10;98.10;;;;;;10446157;28;20206;-62
2023/12/04 23:33:14;;;;;;;6.80;5.87;;;6.10;98.50;;;;;;10452464;28;20244;-63
2023/12/04 23:38:18;;;;;;;6.33;5.50;;;6.10;98.00;;;;;;10446062;28;20259;-63
2023/12/04 23:43:22;;;;;;;6.07;5.47;;;6.20;98.60;;;;;;10443575;28;20704;-63
2023/12/04 23:48:27;;;;;;;6.40;5.80;;;6.20;99.00;;;;;;10448713;28;20232;-63
2023/12/04 23:53:31;;;;;;;6.63;5.90;;;6.10;97.90;;;;;;10450072;28;20225;-63
2023/12/04 23:58:34;;;;;;;6.63;6.03;;;6.20;97.70;;;;;;10450821;28;20240;-63
